createdAt,value
2022-11-29T00:01:29.154Z,99919.25
2022-11-29T00:07:35.280Z,99913.39
2022-11-29T00:14:32.507Z,99919.42
2022-11-29T00:17:22.858Z,99919.23
2022-11-29T00:20:35.687Z,99920.79
2022-11-29T00:26:58.550Z,99920.42
2022-11-29T00:30:11.749Z,99917.31
2022-11-29T00:33:14.866Z,99915.92
2022-11-29T00:39:22.183Z,99915.57
2022-11-29T00:42:41.487Z,99916.08
2022-11-29T00:45:49.225Z,99914.70
2022-11-29T00:48:48.502Z,99915.23
2022-11-29T00:51:48.618Z,99915.40
2022-11-29T01:01:29.850Z,99918.84
2022-11-29T01:04:34.150Z,99919.52
2022-11-29T01:10:53.881Z,99919.52
2022-11-29T01:14:12.509Z,99923.66
2022-11-29T01:17:45.308Z,99925.05
2022-11-29T01:28:43.673Z,99933.52
2022-11-29T01:34:40.388Z,99932.64
2022-11-29T01:37:14.721Z,99931.61
2022-11-29T01:40:53.905Z,99928.52
2022-11-29T01:47:52.562Z,99923.83
2022-11-29T01:51:28.322Z,99924.16
2022-11-29T01:54:48.860Z,99923.98
2022-11-29T02:02:08.124Z,99917.55
2022-11-29T02:05:10.271Z,99915.48
2022-11-29T02:08:23.833Z,99915.84
2022-11-29T02:11:47.817Z,99922.73
2022-11-29T02:21:50.626Z,99921.34
2022-11-29T02:30:06.534Z,99921.50
2022-11-29T02:33:11.484Z,99920.29
2022-11-29T02:36:58.252Z,99920.31
2022-11-29T02:45:18.001Z,99920.36
2022-11-29T02:49:00.943Z,99926.75
2022-11-29T02:52:41.963Z,99928.16
2022-11-29T03:00:08.721Z,99930.25
2022-11-29T03:07:35.397Z,99932.15
2022-11-29T03:10:35.026Z,99929.70
2022-11-29T03:14:06.167Z,99931.27
2022-11-29T03:17:20.889Z,99939.39
2022-11-29T03:24:27.230Z,99936.45
2022-11-29T03:27:42.302Z,99938.35
2022-11-29T03:30:40.815Z,99939.39
2022-11-29T03:37:10.842Z,99938.19
2022-11-29T03:43:45.889Z,99940.98
2022-11-29T03:46:46.655Z,99943.05
2022-11-29T03:49:46.454Z,99940.80
2022-11-29T03:52:45.947Z,99941.31
2022-11-29T03:56:05.705Z,99948.06
2022-11-29T04:03:07.976Z,99949.80
2022-11-29T04:14:46.687Z,99956.53
2022-11-29T04:21:46.476Z,99956.20
2022-11-29T04:25:23.749Z,99956.71
2022-11-29T04:28:36.848Z,99957.05
2022-11-29T04:31:42.989Z,99962.23
2022-11-29T04:34:50.636Z,99964.50
2022-11-29T04:38:19.999Z,99971.23
2022-11-29T04:41:34.454Z,99975.56
2022-11-29T04:45:17.067Z,99976.60
2022-11-29T04:55:50.406Z,99983.54
2022-11-29T05:06:22.183Z,99987.20
2022-11-29T05:14:18.216Z,99991.53
2022-11-29T05:26:05.758Z,100005.38
2022-11-29T05:32:41.643Z,100009.88
2022-11-29T05:35:57.015Z,100014.05
2022-11-29T05:39:19.845Z,100019.05
2022-11-29T05:45:53.088Z,100023.39
2022-11-29T05:57:48.629Z,100032.05
2022-11-29T06:32:11.298Z,100061.95
2022-11-29T06:35:33.572Z,100063.84
2022-11-29T06:38:54.379Z,100067.48
2022-11-29T06:45:53.831Z,100075.60
2022-11-29T06:57:02.642Z,100073.70
2022-11-29T06:59:40.885Z,100076.11
2022-11-29T07:02:18.273Z,100080.26
2022-11-29T07:05:13.161Z,100078.52
2022-11-29T07:07:42.164Z,100079.05
2022-11-29T07:10:21.023Z,100085.42
2022-11-29T07:12:51.262Z,100086.63
2022-11-29T07:15:23.740Z,100088.20
2022-11-29T07:18:15.790Z,100091.81
2022-11-29T07:21:11.983Z,100090.43
2022-11-29T07:23:54.593Z,100090.61
2022-11-29T07:26:38.301Z,100093.02
2022-11-29T07:29:53.775Z,100098.20
2022-11-29T07:32:51.471Z,100103.21
2022-11-29T07:35:42.081Z,100103.19
2022-11-29T07:38:26.351Z,100103.38
2022-11-29T07:41:31.662Z,100101.11
2022-11-29T07:44:24.995Z,100106.29
2022-11-29T07:47:22.148Z,100109.56
2022-11-29T07:50:08.023Z,100109.23
2022-11-29T07:52:43.513Z,100110.59
2022-11-29T07:55:32.205Z,100114.05
2022-11-29T07:58:26.608Z,100117.67
2022-11-29T08:01:30.486Z,100118.70
2022-11-29T08:04:37.702Z,100115.91
2022-11-29T08:07:26.774Z,100117.11
2022-11-29T08:10:07.610Z,100120.39
2022-11-29T08:12:47.953Z,100117.61
2022-11-29T08:15:32.341Z,100123.50
2022-11-29T08:18:19.702Z,100128.34
2022-11-29T08:21:01.105Z,100125.73
2022-11-29T08:23:53.389Z,100125.91
2022-11-29T08:26:42.847Z,100125.38
2022-11-29T08:29:41.142Z,100128.13
2022-11-29T08:32:39.817Z,100126.23
2022-11-29T08:35:21.778Z,100126.05
2022-11-29T08:38:06.793Z,100124.98
2022-11-29T08:40:43.148Z,100126.71
2022-11-29T08:43:15.972Z,100127.89
2022-11-29T08:45:55.042Z,100131.34
2022-11-29T08:48:29.909Z,100133.40
2022-11-29T08:51:13.864Z,100131.84
2022-11-29T08:53:49.107Z,100131.47
2022-11-29T08:59:31.104Z,100138.52
2022-11-29T09:02:17.070Z,100141.29
2022-11-29T09:04:55.827Z,100150.42
2022-11-29T09:07:37.669Z,100150.60
2022-11-29T09:13:56.915Z,100151.23
2022-11-29T09:16:42.723Z,100149.83
2022-11-29T09:19:19.193Z,100150.15
2022-11-29T09:21:47.892Z,100149.95
2022-11-29T09:24:21.595Z,100148.52
2022-11-29T09:27:15.931Z,100154.08
2022-11-29T09:30:23.377Z,100157.88
2022-11-29T09:36:13.425Z,100158.77
2022-11-29T09:42:22.411Z,100156.13
2022-11-29T09:45:29.071Z,100157.83
2022-11-29T09:48:34.347Z,100155.02
2022-11-29T09:51:18.609Z,100156.40
2022-11-29T09:54:15.817Z,100156.20
2022-11-29T09:56:57.523Z,100157.23
2022-11-29T10:00:12.648Z,100158.98
2022-11-29T10:03:16.404Z,100160.69
2022-11-29T10:06:18.062Z,100158.95
2022-11-29T10:09:23.553Z,100158.40
2022-11-29T10:12:17.597Z,100158.19
2022-11-29T10:15:01.478Z,100164.06
2022-11-29T10:17:50.383Z,100163.02
2022-11-29T10:20:53.331Z,100164.04
2022-11-29T10:23:58.506Z,100163.30
2022-11-29T10:26:29.301Z,100166.23
2022-11-29T10:29:26.498Z,100170.17
2022-11-29T10:32:10.439Z,100168.23
2022-11-29T10:35:02.439Z,100166.66
2022-11-29T10:38:14.656Z,100168.20
2022-11-29T10:41:28.182Z,100168.65
2022-11-29T10:48:06.503Z,100170.23
2022-11-29T10:50:46.508Z,100174.50
2022-11-29T10:53:48.305Z,100171.36
2022-11-29T10:56:35.788Z,100177.04
2022-11-29T11:02:29.471Z,100173.83
2022-11-29T11:05:32.410Z,100174.79
2022-11-29T11:08:42.199Z,100174.70
2022-11-29T11:12:14.662Z,100173.70
2022-11-29T11:15:37.124Z,100173.42
2022-11-29T11:19:03.640Z,100178.79
2022-11-29T11:21:47.908Z,100174.86
2022-11-29T11:24:46.061Z,100172.80
2022-11-29T11:27:39.707Z,100171.69
2022-11-29T11:30:22.898Z,100171.70
2022-11-29T11:33:38.056Z,100173.40
2022-11-29T11:36:25.740Z,100173.70
2022-11-29T11:39:20.033Z,100178.05
2022-11-29T11:42:11.102Z,100178.64
2022-11-29T11:45:03.318Z,100179.67
2022-11-29T11:48:16.911Z,100180.67
2022-11-29T11:51:33.862Z,100184.23
2022-11-29T11:54:21.008Z,100184.67
2022-11-29T11:56:57.377Z,100182.83
2022-11-29T11:59:43.367Z,100190.02
2022-11-29T12:02:41.224Z,100185.31
2022-11-29T12:05:25.589Z,100189.31
2022-11-29T12:08:12.578Z,100191.85
2022-11-29T12:10:51.067Z,100191.27
2022-11-29T12:13:32.638Z,100189.51
2022-11-29T12:16:30.385Z,100188.45
2022-11-29T12:19:13.682Z,100193.56
2022-11-29T12:21:54.501Z,100193.30
2022-11-29T12:27:46.179Z,100193.95
2022-11-29T12:30:28.865Z,100190.90
2022-11-29T12:33:22.866Z,100192.53
2022-11-29T12:36:19.641Z,100190.35
2022-11-29T12:39:18.173Z,100186.42
2022-11-29T12:42:34.230Z,100189.31
2022-11-29T12:45:24.109Z,100194.44
2022-11-29T12:48:42.653Z,100195.98
2022-11-29T12:51:58.100Z,100200.14
2022-11-29T12:54:32.944Z,100201.30
2022-11-29T12:57:23.597Z,100203.75
2022-11-29T13:00:25.266Z,100202.20
2022-11-29T13:03:04.317Z,100204.48
2022-11-29T13:06:08.492Z,100207.42
2022-11-29T13:09:04.201Z,100210.36
2022-11-29T13:12:07.574Z,100213.19
2022-11-29T13:15:02.323Z,100216.73
2022-11-29T13:17:50.155Z,100221.69
2022-11-29T13:20:59.842Z,100223.27
2022-11-29T13:24:31.864Z,100225.94
2022-11-29T13:27:17.678Z,100225.21
2022-11-29T13:29:57.924Z,100228.36
2022-11-29T13:33:14.839Z,100230.16
2022-11-29T13:36:14.324Z,100230.38
2022-11-29T13:39:27.856Z,100234.58
2022-11-29T13:42:17.942Z,100239.45
2022-11-29T13:45:31.762Z,100243.09
2022-11-29T13:48:28.291Z,100238.91
2022-11-29T13:51:41.972Z,100241.72
2022-11-29T13:58:19.253Z,100248.27
2022-11-29T14:01:09.848Z,100246.70
2022-11-29T14:04:16.643Z,100251.02
2022-11-29T14:09:55.749Z,100258.92
2022-11-29T14:12:44.211Z,100257.73
2022-11-29T14:15:35.691Z,100256.58
2022-11-29T14:18:38.221Z,100260.58
2022-11-29T14:21:18.084Z,100260.08
2022-11-29T14:27:31.370Z,100266.80
2022-11-29T14:30:05.464Z,100267.21
2022-11-29T14:33:15.367Z,100265.85
2022-11-29T14:36:08.871Z,100268.30
2022-11-29T14:39:22.084Z,100268.67
2022-11-29T14:43:02.852Z,100265.04
2022-11-29T14:45:43.015Z,100267.50
2022-11-29T14:48:42.214Z,100269.61
2022-11-29T14:51:36.038Z,100275.89
2022-11-29T14:54:20.618Z,100281.14
2022-11-29T14:57:03.796Z,100284.33
2022-11-29T14:59:50.346Z,100281.42
2022-11-29T15:02:46.906Z,100284.56
2022-11-29T15:05:54.142Z,100287.16
2022-11-29T15:08:30.260Z,100289.45
2022-11-29T15:11:06.249Z,100293.14
2022-11-29T15:13:59.201Z,100297.16
2022-11-29T15:17:18.569Z,100302.06
2022-11-29T15:20:14.508Z,100302.77
2022-11-29T15:23:11.724Z,100308.15
2022-11-29T15:26:22.180Z,100307.48
2022-11-29T15:29:23.164Z,100310.10
2022-11-29T15:35:50.420Z,100311.34
2022-11-29T15:39:03.380Z,100317.42
2022-11-29T15:41:58.008Z,100315.74
2022-11-29T15:44:28.923Z,100316.30
2022-11-29T15:47:16.208Z,100316.84
2022-11-29T15:49:47.804Z,100317.21
2022-11-29T15:52:32.113Z,100315.52
2022-11-29T15:55:12.038Z,100317.95
2022-11-29T15:57:48.409Z,100318.84
2022-11-29T16:00:24.257Z,100321.09
2022-11-29T16:03:07.808Z,100322.48
2022-11-29T16:05:42.457Z,100322.66
2022-11-29T16:08:20.090Z,100324.92
2022-11-29T16:10:57.324Z,100325.98
2022-11-29T16:13:33.143Z,100332.73
2022-11-29T16:16:08.189Z,100334.30
2022-11-29T16:18:44.620Z,100339.86
2022-11-29T16:21:34.229Z,100343.86
2022-11-29T16:24:14.047Z,100346.45
2022-11-29T16:27:07.852Z,100345.40
2022-11-29T16:29:43.559Z,100343.85
2022-11-29T16:32:31.331Z,100350.96
2022-11-29T16:35:43.317Z,100349.23
2022-11-29T16:38:27.269Z,100357.41
2022-11-29T16:41:09.706Z,100363.63
2022-11-29T16:43:49.838Z,100359.84
2022-11-29T16:46:27.332Z,100361.21
2022-11-29T16:49:03.938Z,100364.85
2022-11-29T16:51:52.113Z,100366.55
2022-11-29T16:54:28.502Z,100370.38
2022-11-29T16:56:58.531Z,100371.77
2022-11-29T16:59:28.841Z,100369.71
2022-11-29T17:01:58.307Z,100375.96
2022-11-29T17:04:29.409Z,100374.92
2022-11-29T17:07:00.372Z,100375.46
2022-11-29T17:09:34.576Z,100373.74
2022-11-29T17:12:13.928Z,100373.23
2022-11-29T17:14:47.251Z,100372.36
2022-11-29T17:17:28.184Z,100375.14
2022-11-29T17:19:57.665Z,100378.08
2022-11-29T17:22:38.425Z,100377.75
2022-11-29T17:25:07.914Z,100382.24
2022-11-29T17:27:37.146Z,100381.73
2022-11-29T17:30:08.152Z,100382.94
2022-11-29T17:32:37.530Z,100385.36
2022-11-29T17:35:06.396Z,100386.39
2022-11-29T17:37:35.778Z,100384.33
2022-11-29T17:40:05.011Z,100386.23
2022-11-29T17:42:37.419Z,100389.17
2022-11-29T17:45:06.527Z,100391.42
2022-11-29T17:47:40.303Z,100390.57
2022-11-29T17:50:09.634Z,100395.40
2022-11-29T17:52:40.235Z,100400.09
2022-11-29T17:55:09.316Z,100402.68
2022-11-29T17:57:38.634Z,100405.46
2022-11-29T18:00:09.248Z,100404.77
2022-11-29T18:02:38.374Z,100401.14
2022-11-29T18:05:09.157Z,100401.14
2022-11-29T18:07:58.823Z,100403.04
2022-11-29T18:10:29.045Z,100408.23
2022-11-29T18:12:58.356Z,100412.73
2022-11-29T18:15:26.992Z,100420.00
2022-11-29T18:17:55.646Z,100416.19
2022-11-29T18:20:24.785Z,100418.44
2022-11-29T18:22:53.664Z,100416.54
2022-11-29T18:25:39.634Z,100418.27
2022-11-29T18:28:11.855Z,100418.61
2022-11-29T18:30:41.878Z,100421.56
2022-11-29T18:33:11.510Z,100423.13
2022-11-29T18:35:42.877Z,100423.11
2022-11-29T18:38:16.544Z,100427.09
2022-11-29T18:40:46.365Z,100427.43
2022-11-29T18:43:17.479Z,100433.31
2022-11-29T18:45:46.838Z,100432.29
2022-11-29T18:48:18.125Z,100426.57
2022-11-29T18:50:47.317Z,100423.11
2022-11-29T18:53:16.866Z,100421.73
2022-11-29T18:55:50.422Z,100423.64
2022-11-29T18:58:21.484Z,100433.83
2022-11-29T19:01:24.631Z,100430.55
2022-11-29T19:03:59.822Z,100433.67
2022-11-29T19:06:38.950Z,100434.89
2022-11-29T19:09:15.076Z,100437.30
2022-11-29T19:11:54.451Z,100434.02
2022-11-29T19:17:40.158Z,100430.04
2022-11-29T19:20:17.756Z,100432.96
2022-11-29T19:23:00.660Z,100434.70
2022-11-29T19:28:57.906Z,100443.02
2022-11-29T19:31:59.931Z,100437.98
2022-11-29T19:38:13.776Z,100446.98
2022-11-29T19:41:18.662Z,100446.98
2022-11-29T19:44:07.455Z,100451.65
2022-11-29T19:49:47.089Z,100459.26
2022-11-29T19:55:23.926Z,100459.08
2022-11-29T19:57:59.699Z,100460.80
2022-11-29T20:00:35.226Z,100463.58
2022-11-29T20:03:09.967Z,100464.44
2022-11-29T20:06:31.321Z,100463.73
2022-11-29T20:09:20.797Z,100466.34
2022-11-29T20:11:50.685Z,100470.15
2022-11-29T20:14:49.764Z,100475.15
2022-11-29T20:17:27.642Z,100474.81
2022-11-29T20:20:05.760Z,100475.16
2022-11-29T20:22:53.474Z,100474.48
2022-11-29T20:25:28.617Z,100477.25
2022-11-29T20:28:07.132Z,100477.23
2022-11-29T20:31:14.734Z,100477.41
2022-11-29T20:33:55.231Z,100474.46
2022-11-29T20:40:09.411Z,100474.12
2022-11-29T20:43:19.514Z,100473.08
2022-11-29T20:45:59.241Z,100471.36
2022-11-29T20:48:35.781Z,100472.21
2022-11-29T20:51:14.378Z,100473.09
2022-11-29T20:53:47.082Z,100473.77
2022-11-29T20:56:22.702Z,100474.13
2022-11-29T20:59:05.505Z,100480.69
2022-11-29T21:01:47.704Z,100479.83
2022-11-29T21:04:56.526Z,100482.05
2022-11-29T21:07:40.036Z,100482.58
2022-11-29T21:10:13.398Z,100486.55
2022-11-29T21:12:51.265Z,100485.17
2022-11-29T21:15:28.201Z,100485.52
2022-11-29T21:17:58.335Z,100488.98
2022-11-29T21:20:31.564Z,100490.34
2022-11-29T21:23:15.762Z,100493.80
2022-11-29T21:26:05.319Z,100495.86
2022-11-29T21:28:51.028Z,100495.33
2022-11-29T21:31:26.715Z,100497.77
2022-11-29T21:33:57.515Z,100501.23
2022-11-29T21:36:28.350Z,100502.79
2022-11-29T21:39:03.624Z,100504.35
2022-11-29T21:41:36.311Z,100506.77
2022-11-29T21:44:08.810Z,100510.90
2022-11-29T21:46:39.670Z,100511.08
2022-11-29T21:49:09.767Z,100509.17
2022-11-29T21:51:40.186Z,100513.67
2022-11-29T21:54:16.967Z,100515.57
2022-11-29T21:56:51.976Z,100515.06
2022-11-29T21:59:29.139Z,100516.27
2022-11-29T22:02:00.756Z,100517.47
2022-11-29T22:04:33.701Z,100518.16
2022-11-29T22:07:07.868Z,100515.05
2022-11-29T22:09:42.351Z,100518.52
2022-11-29T22:12:34.989Z,100517.48
2022-11-29T22:15:27.903Z,100517.32
2022-11-29T22:18:01.982Z,100516.11
2022-11-29T22:20:35.431Z,100515.41
2022-11-29T22:23:11.569Z,100515.38
2022-11-29T22:25:45.140Z,100515.23
2022-11-29T22:28:20.132Z,100512.47
2022-11-29T22:30:52.793Z,100508.67
2022-11-29T22:33:34.686Z,100507.13
2022-11-29T22:36:14.029Z,100510.95
2022-11-29T22:38:50.838Z,100509.91
2022-11-29T22:41:20.282Z,100510.60
2022-11-29T22:43:50.098Z,100509.56
2022-11-29T22:46:26.667Z,100510.44
2022-11-29T22:49:02.746Z,100509.05
2022-11-29T22:51:41.320Z,100506.29
2022-11-29T22:54:18.762Z,100507.31
2022-11-29T22:56:51.051Z,100508.88
2022-11-29T22:59:20.220Z,100508.35
2022-11-29T23:01:58.437Z,100510.77
2022-11-29T23:04:31.720Z,100514.73
2022-11-29T23:07:07.059Z,100516.98
2022-11-29T23:09:47.937Z,100520.09
2022-11-29T23:12:24.418Z,100514.23
2022-11-29T23:15:09.627Z,100514.40
2022-11-29T23:18:18.519Z,100512.16
2022-11-29T23:20:51.239Z,100512.50
2022-11-29T23:23:21.257Z,100511.64
2022-11-29T23:25:57.495Z,100512.86
2022-11-29T23:28:38.009Z,100515.80
2022-11-29T23:31:14.618Z,100515.27
2022-11-29T23:33:53.728Z,100517.52
2022-11-29T23:36:31.718Z,100519.41
2022-11-29T23:39:06.925Z,100520.80
2022-11-29T23:41:41.009Z,100519.77
2022-11-29T23:44:16.246Z,100521.30
2022-11-29T23:46:57.642Z,100525.81
2022-11-29T23:49:38.683Z,100524.24
2022-11-29T23:52:25.929Z,100520.60
2022-11-29T23:55:24.530Z,100521.81
2022-11-29T23:58:23.922Z,100523.89
